Time;durP1;ratioP1;P1;durP2;ratioP2;P2;SDS_P1;SDS_P2;PMS_P1;PMS_P2;Temp;Humidity;BMP_temperature;BMP_pressure;BME280_temperature;BME280_humidity;BME280_pressure;Samples;Min_cycle;Max_cycle;Signal;HPM_P1;HPM_P2
2021/12/09 00:01:22;;;;;;;;;;;;;;;;;;2471764;24;1257;-86
2021/12/09 00:02:48;;;;;;;;;;;;;;;;;;2473677;24;1354;-87
2021/12/09 00:04:08;;;;;;;;;;;;;;;;;;2491397;23;1330;-87
2021/12/09 00:05:46;;;;;;;;;;;;;;;;;;2502816;23;1905;-87
2021/12/09 00:07:01;;;;;;;;;;;;;;;;;;2497049;23;1232;-87
2021/12/09 00:08:24;;;;;;;;;;;;;;;;;;2501621;23;1111;-87
2021/12/09 00:09:31;;;;;;;;;;;;;;;;;;2498009;23;1395;-87
2021/12/09 00:10:42;;;;;;;;;;;;;;;;;;2486862;23;1246;-87
2021/12/09 00:11:54;;;;;;;;;;;;;;;;;;2530937;23;1458;-87
2021/12/09 00:13:15;;;;;;;;;;;;;;;;;;2547785;23;1391;-88
2021/12/09 00:14:27;;;;;;;;;;;;;;;;;;2558297;23;1490;-87
2021/12/09 00:15:30;;;;;;;;;;;;;;;;;;2543100;23;1304;-87
2021/12/09 00:16:42;;;;;;;;;;;;;;;;;;2545596;23;1230;-87
2021/12/09 00:17:45;;;;;;;;;;;;;;;;;;2535946;23;1568;-87
2021/12/09 00:18:56;;;;;;;;;;;;;;;;;;2546630;23;1177;-87
2021/12/09 00:20:12;;;;;;;;;;;;;;;;;;2532306;23;1351;-87
2021/12/09 00:21:39;;;;;;;;;;;;;;;;;;2537765;23;978;-87
2021/12/09 00:23:00;;;;;;;;;;;;;;;;;;2543826;23;1058;-87
2021/12/09 00:24:08;;;;;;;;;;;;;;;;;;2562282;23;1291;-87
2021/12/09 01:00:14;;;;;;;;;;;;;;;;;;2373796;24;1149;-86
2021/12/09 01:01:15;;;;;;;;;;;;;;;;;;2374418;25;1371;-86
2021/12/09 01:02:17;;;;;;;;;;;;;;;;;;2374466;25;1195;-85
2021/12/09 01:03:18;;;;;;;;;;;;;;;;;;2385571;24;1295;-85
2021/12/09 01:04:20;;;;;;;;;;;;;;;;;;2390778;24;1340;-84
2021/12/09 01:05:21;;;;;;;;;;;;;;;;;;2435270;24;1289;-85
2021/12/09 01:06:22;;;;;;;;;;;;;;;;;;2448175;24;1953;-84
2021/12/09 01:07:23;;;;;;;;;;;;;;;;;;2463323;23;1197;-84
2021/12/09 01:08:25;;;;;;;;;;;;;;;;;;2485962;23;1324;-85
2021/12/09 01:09:25;;;;;;;;;;;;;;;;;;2498221;23;1205;-93
2021/12/09 01:10:28;;;;;;;;;;;;;;;;;;2486143;23;1198;-86
2021/12/09 01:11:28;;;;;;;;;;;;;;;;;;2498033;23;1303;-85
2021/12/09 01:12:30;;;;;;;;;;;;;;;;;;2497809;23;1269;-86
2021/12/09 01:13:31;;;;;;;;;;;;;;;;;;2498294;23;1181;-87
2021/12/09 01:14:37;;;;;;;;;;;;;;;;;;2497912;23;1103;-86
2021/12/09 01:15:39;;;;;;;;;;;;;;;;;;2498149;23;1325;-87
2021/12/09 01:16:40;;;;;;;;;;;;;;;;;;2497598;23;1165;-85
2021/12/09 01:17:42;;;;;;;;;;;;;;;;;;2498053;23;1333;-86
2021/12/09 01:18:43;;;;;;;;;;;;;;;;;;2497784;23;1336;-86
2021/12/09 01:19:45;;;;;;;;;;;;;;;;;;2498031;23;1138;-85
2021/12/09 01:20:45;;;;;;;;;;;;;;;;;;2497842;23;1175;-85
2021/12/09 01:21:47;;;;;;;;;;;;;;;;;;2486059;23;1249;-85
2021/12/09 01:22:52;;;;;;;;;;;;;;;;;;2485906;23;1159;-85
2021/12/09 01:23:54;;;;;;;;;;;;;;;;;;2487088;23;1239;-85
2021/12/09 01:24:55;;;;;;;;;;;;;;;;;;2486046;23;1342;-85
2021/12/09 01:26:01;;;;;;;;;;;;;;;;;;2485971;23;1909;-85
2021/12/09 01:27:02;;;;;;;;;;;;;;;;;;2497889;23;989;-85
2021/12/09 01:28:04;;;;;;;;;;;;;;;;;;2497672;23;1179;-84
2021/12/09 01:29:12;;;;;;;;;;;;;;;;;;2498010;23;1069;-86
2021/12/09 01:30:17;;;;;;;;;;;;;;;;;;2497743;23;1292;-85
2021/12/09 01:31:23;;;;;;;;;;;;;;;;;;2497558;23;1430;-85
2021/12/09 01:32:25;;;;;;;;;;;;;;;;;;2491072;23;972;-90
2021/12/09 01:33:26;;;;;;;;;;;;;;;;;;2528348;23;1331;-86
2021/12/09 01:34:28;;;;;;;;;;;;;;;;;;2534470;23;1236;-89
2021/12/09 01:35:30;;;;;;;;;;;;;;;;;;2534545;23;1281;-84
2021/12/09 01:36:32;;;;;;;;;;;;;;;;;;2547167;23;903;-84
2021/12/09 01:37:34;;;;;;;;;;;;;;;;;;2546335;23;1153;-84
2021/12/09 01:38:36;;;;;;;;;;;;;;;;;;2534312;23;1301;-84
2021/12/09 01:39:36;;;;;;;;;;;;;;;;;;2546581;23;1038;-84
2021/12/09 01:40:39;;;;;;;;;;;;;;;;;;2546436;23;1464;-84
2021/12/09 01:41:39;;;;;;;;;;;;;;;;;;2534028;23;1434;-84
2021/12/09 01:42:41;;;;;;;;;;;;;;;;;;2534183;23;1269;-84
2021/12/09 01:43:42;;;;;;;;;;;;;;;;;;2534060;23;1461;-84
2021/12/09 01:44:43;;;;;;;;;;;;;;;;;;2546148;23;780;-85
2021/12/09 01:45:45;;;;;;;;;;;;;;;;;;2546539;23;1196;-85
2021/12/09 01:46:47;;;;;;;;;;;;;;;;;;2534192;23;2041;-85
2021/12/09 01:47:48;;;;;;;;;;;;;;;;;;2534264;23;1220;-85
2021/12/09 01:48:51;;;;;;;;;;;;;;;;;;2546219;23;1331;-84
2021/12/09 01:49:52;;;;;;;;;;;;;;;;;;2534951;23;1281;-84
2021/12/09 01:50:54;;;;;;;;;;;;;;;;;;2534558;23;1224;-85
2021/12/09 01:51:54;;;;;;;;;;;;;;;;;;2534103;23;1424;-86
2021/12/09 01:52:56;;;;;;;;;;;;;;;;;;2546308;23;910;-84
2021/12/09 01:53:56;;;;;;;;;;;;;;;;;;2546457;23;1364;-85
2021/12/09 01:54:58;;;;;;;;;;;;;;;;;;2558899;23;1310;-85
2021/12/09 01:55:59;;;;;;;;;;;;;;;;;;2558463;23;1164;-86
2021/12/09 01:57:06;;;;;;;;;;;;;;;;;;2546190;23;811;-86
2021/12/09 01:58:07;;;;;;;;;;;;;;;;;;2546354;23;1323;-84
2021/12/09 01:59:08;;;;;;;;;;;;;;;;;;2534336;23;1275;-84
2021/12/09 02:00:11;;;;;;;;;;;;;;;;;;2546422;23;965;-88
2021/12/09 02:01:17;;;;;;;;;;;;;;;;;;2559490;23;1195;-86
2021/12/09 02:02:18;;;;;;;;;;;;;;;;;;2546057;23;1184;-84
2021/12/09 02:03:20;;;;;;;;;;;;;;;;;;2559149;23;1230;-84
2021/12/09 02:04:20;;;;;;;;;;;;;;;;;;2571279;23;799;-85
2021/12/09 02:05:23;;;;;;;;;;;;;;;;;;2546570;23;1172;-86
2021/12/09 02:06:24;;;;;;;;;;;;;;;;;;2534058;23;1904;-85
2021/12/09 02:07:26;;;;;;;;;;;;;;;;;;2546313;23;737;-85
2021/12/09 02:08:26;;;;;;;;;;;;;;;;;;2559531;23;919;-86
2021/12/09 02:09:29;;;;;;;;;;;;;;;;;;2546299;23;1287;-90
2021/12/09 02:10:31;;;;;;;;;;;;;;;;;;2534135;23;1288;-84
2021/12/09 02:11:32;;;;;;;;;;;;;;;;;;2534587;23;1196;-85
2021/12/09 02:12:33;;;;;;;;;;;;;;;;;;2545919;23;693;-85
2021/12/09 02:13:34;;;;;;;;;;;;;;;;;;2558888;23;1577;-85
2021/12/09 02:14:37;;;;;;;;;;;;;;;;;;2546491;23;1077;-85
2021/12/09 02:15:39;;;;;;;;;;;;;;;;;;2546397;23;1348;-86
2021/12/09 02:16:42;;;;;;;;;;;;;;;;;;2545959;23;1376;-85
2021/12/09 02:17:43;;;;;;;;;;;;;;;;;;2534881;23;1205;-85
2021/12/09 02:18:45;;;;;;;;;;;;;;;;;;2533988;23;1365;-85
2021/12/09 02:19:46;;;;;;;;;;;;;;;;;;2534333;23;1319;-85
2021/12/09 02:21:04;;;;;;;;;;;;;;;;;;2546463;23;1098;-87
2021/12/09 02:22:05;;;;;;;;;;;;;;;;;;2546102;23;1208;-85
2021/12/09 02:23:11;;;;;;;;;;;;;;;;;;2534354;23;1185;-85
2021/12/09 02:24:14;;;;;;;;;;;;;;;;;;2535234;23;1280;-85
2021/12/09 02:25:17;;;;;;;;;;;;;;;;;;2547255;23;784;-85
2021/12/09 02:26:19;;;;;;;;;;;;;;;;;;2546431;23;1948;-85
2021/12/09 02:27:22;;;;;;;;;;;;;;;;;;2534257;23;1305;-85
2021/12/09 02:28:24;;;;;;;;;;;;;;;;;;2534586;23;1321;-88
2021/12/09 02:29:26;;;;;;;;;;;;;;;;;;2534500;23;1376;-85
2021/12/09 02:30:27;;;;;;;;;;;;;;;;;;2534517;23;1279;-86
2021/12/09 02:31:29;;;;;;;;;;;;;;;;;;2534155;23;1309;-86
2021/12/09 02:32:30;;;;;;;;;;;;;;;;;;2533825;23;1294;-87
2021/12/09 02:33:32;;;;;;;;;;;;;;;;;;2534363;23;1368;-86
2021/12/09 02:34:33;;;;;;;;;;;;;;;;;;2534297;23;1155;-86
2021/12/09 02:35:36;;;;;;;;;;;;;;;;;;2534246;23;1311;-85
2021/12/09 02:36:41;;;;;;;;;;;;;;;;;;2534328;23;1345;-87
2021/12/09 02:37:42;;;;;;;;;;;;;;;;;;2534460;23;1203;-85
2021/12/09 02:38:45;;;;;;;;;;;;;;;;;;2534308;23;1395;-85
2021/12/09 02:39:45;;;;;;;;;;;;;;;;;;2546698;23;985;-86
2021/12/09 02:40:48;;;;;;;;;;;;;;;;;;2546401;23;1267;-85
2021/12/09 02:41:49;;;;;;;;;;;;;;;;;;2555248;23;1187;-85
2021/12/09 02:42:50;;;;;;;;;;;;;;;;;;2558724;23;1272;-85
2021/12/09 02:43:55;;;;;;;;;;;;;;;;;;2558736;23;1325;-85
2021/12/09 02:44:57;;;;;;;;;;;;;;;;;;2558636;23;1170;-85
2021/12/09 02:46:00;;;;;;;;;;;;;;;;;;2546268;23;1211;-86
2021/12/09 02:47:02;;;;;;;;;;;;;;;;;;2546338;23;1938;-85
2021/12/09 02:48:03;;;;;;;;;;;;;;;;;;2546132;23;1387;-86
2021/12/09 02:49:05;;;;;;;;;;;;;;;;;;2542572;23;1375;-85
2021/12/09 02:50:09;;;;;;;;;;;;;;;;;;2542862;23;1266;-86
2021/12/09 02:51:09;;;;;;;;;;;;;;;;;;2558676;23;1203;-85
2021/12/09 02:52:12;;;;;;;;;;;;;;;;;;2557735;23;1192;-84
2021/12/09 02:53:13;;;;;;;;;;;;;;;;;;2558676;23;1186;-84
2021/12/09 02:54:16;;;;;;;;;;;;;;;;;;2546218;23;1407;-85
2021/12/09 02:55:17;;;;;;;;;;;;;;;;;;2559294;23;776;-84
2021/12/09 02:56:20;;;;;;;;;;;;;;;;;;2558441;23;1405;-85
2021/12/09 02:57:21;;;;;;;;;;;;;;;;;;2558335;23;1482;-85
2021/12/09 02:58:22;;;;;;;;;;;;;;;;;;2558450;23;1239;-85
2021/12/09 02:59:24;;;;;;;;;;;;;;;;;;2558721;23;1172;-84
2021/12/09 03:00:25;;;;;;;;;;;;;;;;;;2546487;23;1277;-84
2021/12/09 03:01:28;;;;;;;;;;;;;;;;;;2546458;23;1387;-84
2021/12/09 03:02:29;;;;;;;;;;;;;;;;;;2557810;23;1228;-85
2021/12/09 03:03:33;;;;;;;;;;;;;;;;;;2547023;23;1284;-84
2021/12/09 03:04:39;;;;;;;;;;;;;;;;;;2546047;23;1268;-84
2021/12/09 03:05:40;;;;;;;;;;;;;;;;;;2547227;23;1218;-84
2021/12/09 03:06:45;;;;;;;;;;;;;;;;;;2558640;23;1950;-86
2021/12/09 03:07:48;;;;;;;;;;;;;;;;;;2558906;23;1188;-85
2021/12/09 03:08:49;;;;;;;;;;;;;;;;;;2546664;23;1263;-86
2021/12/09 03:09:54;;;;;;;;;;;;;;;;;;2546441;23;1189;-86
2021/12/09 03:10:55;;;;;;;;;;;;;;;;;;2559683;23;842;-86
2021/12/09 03:12:03;;;;;;;;;;;;;;;;;;2571792;23;1086;-86
2021/12/09 03:13:05;;;;;;;;;;;;;;;;;;2558721;23;1355;-87
2021/12/09 03:14:07;;;;;;;;;;;;;;;;;;2546260;23;1338;-84
2021/12/09 03:15:08;;;;;;;;;;;;;;;;;;2546307;23;1220;-85
2021/12/09 03:16:10;;;;;;;;;;;;;;;;;;2552960;23;1223;-87
2021/12/09 03:17:11;;;;;;;;;;;;;;;;;;2545888;23;1274;-85
2021/12/09 03:18:12;;;;;;;;;;;;;;;;;;2558697;23;992;-85
2021/12/09 03:19:14;;;;;;;;;;;;;;;;;;2558706;23;1206;-84
2021/12/09 03:20:17;;;;;;;;;;;;;;;;;;2546251;23;1365;-84
2021/12/09 03:21:20;;;;;;;;;;;;;;;;;;2546604;23;1297;-85
2021/12/09 03:22:22;;;;;;;;;;;;;;;;;;2546150;23;1359;-86
2021/12/09 03:23:26;;;;;;;;;;;;;;;;;;2558747;23;986;-84
2021/12/09 03:24:27;;;;;;;;;;;;;;;;;;2558182;23;1306;-84
2021/12/09 03:25:28;;;;;;;;;;;;;;;;;;2546280;23;1209;-86
2021/12/09 03:26:32;;;;;;;;;;;;;;;;;;2546163;23;1901;-87
2021/12/09 03:27:32;;;;;;;;;;;;;;;;;;2546487;23;1307;-85
2021/12/09 03:28:34;;;;;;;;;;;;;;;;;;2546285;23;1228;-84
2021/12/09 03:29:38;;;;;;;;;;;;;;;;;;2546243;23;1248;-84
2021/12/09 03:30:40;;;;;;;;;;;;;;;;;;2558452;23;1344;-85
2021/12/09 03:31:41;;;;;;;;;;;;;;;;;;2546399;23;1430;-84
2021/12/09 03:32:43;;;;;;;;;;;;;;;;;;2545958;23;1352;-84
2021/12/09 03:33:44;;;;;;;;;;;;;;;;;;2558311;23;1219;-84
2021/12/09 03:34:46;;;;;;;;;;;;;;;;;;2546026;23;1332;-84
2021/12/09 03:35:55;;;;;;;;;;;;;;;;;;2546074;23;1396;-84
2021/12/09 03:36:57;;;;;;;;;;;;;;;;;;2547772;23;1115;-86
2021/12/09 03:38:01;;;;;;;;;;;;;;;;;;2558493;23;1089;-86
2021/12/09 03:39:08;;;;;;;;;;;;;;;;;;2558608;23;1204;-86
2021/12/09 03:40:11;;;;;;;;;;;;;;;;;;2547299;23;1342;-85
2021/12/09 03:41:12;;;;;;;;;;;;;;;;;;2546299;23;1334;-84
2021/12/09 03:42:16;;;;;;;;;;;;;;;;;;2558015;23;1028;-83
2021/12/09 03:43:16;;;;;;;;;;;;;;;;;;2558517;23;1298;-85
2021/12/09 03:44:18;;;;;;;;;;;;;;;;;;2546005;23;1189;-85
2021/12/09 03:45:19;;;;;;;;;;;;;;;;;;2558975;23;1315;-85
2021/12/09 03:46:21;;;;;;;;;;;;;;;;;;2570926;23;732;-86
2021/12/09 03:47:25;;;;;;;;;;;;;;;;;;2571786;23;1869;-85
2021/12/09 03:48:28;;;;;;;;;;;;;;;;;;2558480;23;1263;-86
2021/12/09 03:49:29;;;;;;;;;;;;;;;;;;2546261;23;1153;-85
2021/12/09 03:50:30;;;;;;;;;;;;;;;;;;2558273;23;1045;-86
2021/12/09 03:51:35;;;;;;;;;;;;;;;;;;2561257;23;941;-85
2021/12/09 03:52:37;;;;;;;;;;;;;;;;;;2558531;23;1177;-85
2021/12/09 03:53:37;;;;;;;;;;;;;;;;;;2558669;23;1042;-85
2021/12/09 03:54:42;;;;;;;;;;;;;;;;;;2558343;23;1270;-85
2021/12/09 03:55:42;;;;;;;;;;;;;;;;;;2559410;23;768;-84
2021/12/09 03:56:44;;;;;;;;;;;;;;;;;;2558258;23;1112;-84
2021/12/09 03:57:46;;;;;;;;;;;;;;;;;;2546003;23;1249;-84
2021/12/09 03:58:49;;;;;;;;;;;;;;;;;;2546274;23;1298;-84
2021/12/09 03:59:51;;;;;;;;;;;;;;;;;;2546667;23;1209;-84
2021/12/09 04:00:52;;;;;;;;;;;;;;;;;;2558313;23;1351;-84
2021/12/09 04:01:54;;;;;;;;;;;;;;;;;;2557827;23;1380;-91
2021/12/09 04:02:55;;;;;;;;;;;;;;;;;;2546205;23;1201;-84
2021/12/09 04:03:56;;;;;;;;;;;;;;;;;;2546339;23;1145;-84
2021/12/09 04:04:57;;;;;;;;;;;;;;;;;;2558970;23;1259;-85
2021/12/09 04:05:59;;;;;;;;;;;;;;;;;;2559071;23;1060;-84
2021/12/09 04:07:02;;;;;;;;;;;;;;;;;;2572556;23;1926;-86
2021/12/09 04:08:04;;;;;;;;;;;;;;;;;;2558944;23;1227;-85
2021/12/09 04:09:07;;;;;;;;;;;;;;;;;;2547011;23;1376;-86
2021/12/09 04:10:13;;;;;;;;;;;;;;;;;;2547899;23;1166;-87
2021/12/09 04:11:14;;;;;;;;;;;;;;;;;;2559598;23;771;-85
2021/12/09 04:12:19;;;;;;;;;;;;;;;;;;2572336;23;950;-87
2021/12/09 04:13:20;;;;;;;;;;;;;;;;;;2559403;23;1412;-88
2021/12/09 04:14:22;;;;;;;;;;;;;;;;;;2546869;23;1319;-87
2021/12/09 04:15:23;;;;;;;;;;;;;;;;;;2547153;23;1378;-86
2021/12/09 04:16:24;;;;;;;;;;;;;;;;;;2559207;23;1310;-85
2021/12/09 04:17:25;;;;;;;;;;;;;;;;;;2559072;23;745;-85
2021/12/09 04:18:27;;;;;;;;;;;;;;;;;;2559327;23;1283;-86
2021/12/09 04:19:27;;;;;;;;;;;;;;;;;;2559396;23;1227;-85
2021/12/09 04:20:30;;;;;;;;;;;;;;;;;;2546840;23;1523;-87
2021/12/09 04:21:30;;;;;;;;;;;;;;;;;;2547181;23;1352;-91
2021/12/09 04:22:32;;;;;;;;;;;;;;;;;;2546897;23;1203;-85
2021/12/09 04:23:33;;;;;;;;;;;;;;;;;;2559314;23;1317;-85
2021/12/09 04:24:35;;;;;;;;;;;;;;;;;;2559256;23;1133;-85
2021/12/09 04:25:37;;;;;;;;;;;;;;;;;;2559591;23;1110;-86
2021/12/09 04:26:39;;;;;;;;;;;;;;;;;;2559211;23;1093;-87
2021/12/09 04:27:40;;;;;;;;;;;;;;;;;;2547402;23;1938;-85
2021/12/09 04:28:42;;;;;;;;;;;;;;;;;;2546804;23;1275;-86
2021/12/09 04:29:42;;;;;;;;;;;;;;;;;;2546895;23;1294;-85
2021/12/09 04:30:44;;;;;;;;;;;;;;;;;;2559088;23;1001;-85
2021/12/09 04:31:47;;;;;;;;;;;;;;;;;;2559226;23;1323;-85
2021/12/09 04:32:49;;;;;;;;;;;;;;;;;;2547353;23;1193;-85
2021/12/09 04:33:49;;;;;;;;;;;;;;;;;;2546901;23;1271;-89
2021/12/09 04:34:53;;;;;;;;;;;;;;;;;;2559331;23;784;-86
2021/12/09 04:35:54;;;;;;;;;;;;;;;;;;2558962;23;1185;-86
2021/12/09 04:36:56;;;;;;;;;;;;;;;;;;2546967;23;1170;-85
2021/12/09 04:37:56;;;;;;;;;;;;;;;;;;2546716;23;1267;-85
2021/12/09 04:38:58;;;;;;;;;;;;;;;;;;2546700;23;1287;-86
2021/12/09 04:40:00;;;;;;;;;;;;;;;;;;2547169;23;1261;-85
2021/12/09 04:41:05;;;;;;;;;;;;;;;;;;2547518;23;1215;-85
2021/12/09 04:42:07;;;;;;;;;;;;;;;;;;2546967;23;1218;-84
2021/12/09 04:43:07;;;;;;;;;;;;;;;;;;2546753;23;1200;-85
2021/12/09 04:44:09;;;;;;;;;;;;;;;;;;2547066;23;1332;-84
2021/12/09 04:45:11;;;;;;;;;;;;;;;;;;2559593;23;1024;-84
2021/12/09 04:46:12;;;;;;;;;;;;;;;;;;2572289;23;839;-84
2021/12/09 04:47:13;;;;;;;;;;;;;;;;;;2558954;23;2263;-85
2021/12/09 04:48:18;;;;;;;;;;;;;;;;;;2546827;23;1113;-84
2021/12/09 04:49:18;;;;;;;;;;;;;;;;;;2547519;23;1286;-84
2021/12/09 04:50:20;;;;;;;;;;;;;;;;;;2546784;23;1206;-84
2021/12/09 04:51:21;;;;;;;;;;;;;;;;;;2547077;23;1218;-84
2021/12/09 04:52:22;;;;;;;;;;;;;;;;;;2546627;23;1181;-84
2021/12/09 04:53:23;;;;;;;;;;;;;;;;;;2546864;23;1363;-85
2021/12/09 04:54:25;;;;;;;;;;;;;;;;;;2546786;23;1225;-85
2021/12/09 04:55:25;;;;;;;;;;;;;;;;;;2559208;23;1224;-84
2021/12/09 04:56:29;;;;;;;;;;;;;;;;;;2571660;23;712;-85
2021/12/09 04:57:29;;;;;;;;;;;;;;;;;;2558849;23;1318;-84
2021/12/09 04:58:31;;;;;;;;;;;;;;;;;;2558842;23;1372;-85
2021/12/09 04:59:32;;;;;;;;;;;;;;;;;;2559305;23;1192;-85
2021/12/09 05:00:37;;;;;;;;;;;;;;;;;;2546359;23;1197;-86
2021/12/09 05:01:41;;;;;;;;;;;;;;;;;;2547317;23;1358;-85
2021/12/09 05:03:00;;;;;;;;;;;;;;;;;;2547018;23;1311;-85
2021/12/09 05:04:03;;;;;;;;;;;;;;;;;;2558995;23;1419;-90
2021/12/09 05:05:04;;;;;;;;;;;;;;;;;;2547204;23;1228;-85
2021/12/09 05:06:06;;;;;;;;;;;;;;;;;;2546462;23;1167;-86
2021/12/09 05:07:06;;;;;;;;;;;;;;;;;;2559064;23;1901;-85
2021/12/09 05:08:09;;;;;;;;;;;;;;;;;;2572076;23;1025;-87
2021/12/09 05:09:16;;;;;;;;;;;;;;;;;;2558964;23;1225;-85
2021/12/09 05:10:17;;;;;;;;;;;;;;;;;;2558313;23;1401;-85
2021/12/09 05:13:08;;;;;;;;;;;;;;;;;;2535822;23;1215;-88
2021/12/09 05:14:35;;;;;;;;;;;;;;;;;;2549512;23;1402;-87
2021/12/09 05:17:32;;;;;;;;;;;;;;;;;;2552550;23;1320;-87
2021/12/09 05:18:48;;;;;;;;;;;;;;;;;;2539245;23;1334;-86
2021/12/09 05:21:39;;;;;;;;;;;;;;;;;;2562550;23;1401;-87
2021/12/09 05:22:56;;;;;;;;;;;;;;;;;;2517846;23;1317;-86
2021/12/09 05:25:56;;;;;;;;;;;;;;;;;;2541854;23;1284;-86
2021/12/09 05:32:34;;;;;;;;;;;;;;;;;;2502130;23;1395;-84
2021/12/09 05:33:38;;;;;;;;;;;;;;;;;;2538020;23;1410;-85
2021/12/09 05:34:45;;;;;;;;;;;;;;;;;;2547369;23;1217;-85
2021/12/09 05:35:50;;;;;;;;;;;;;;;;;;2548043;23;1326;-85
2021/12/09 05:36:58;;;;;;;;;;;;;;;;;;2546705;23;1285;-83
2021/12/09 05:38:07;;;;;;;;;;;;;;;;;;2561699;23;1210;-83
2021/12/09 05:39:10;;;;;;;;;;;;;;;;;;2558865;23;1182;-84
2021/12/09 05:41:33;;;;;;;;;;;;;;;;;;2558192;23;1246;-84
2021/12/09 05:42:34;;;;;;;;;;;;;;;;;;2546117;23;1203;-85
2021/12/09 05:43:35;;;;;;;;;;;;;;;;;;2545526;23;1378;-84
2021/12/09 05:44:38;;;;;;;;;;;;;;;;;;2546369;23;1312;-84
2021/12/09 05:45:38;;;;;;;;;;;;;;;;;;2558833;23;1287;-84
2021/12/09 05:46:43;;;;;;;;;;;;;;;;;;2558415;23;1342;-84
2021/12/09 05:47:46;;;;;;;;;;;;;;;;;;2551576;23;1881;-83
2021/12/09 05:48:47;;;;;;;;;;;;;;;;;;2558641;23;1281;-83
2021/12/09 05:49:49;;;;;;;;;;;;;;;;;;2558947;23;903;-84
2021/12/09 05:50:50;;;;;;;;;;;;;;;;;;2558755;23;1222;-84
2021/12/09 05:51:53;;;;;;;;;;;;;;;;;;2546405;23;1394;-84
2021/12/09 05:52:53;;;;;;;;;;;;;;;;;;2558734;23;913;-84
2021/12/09 05:53:55;;;;;;;;;;;;;;;;;;2557754;23;1287;-84
2021/12/09 05:54:57;;;;;;;;;;;;;;;;;;2558819;23;1168;-83
2021/12/09 05:55:58;;;;;;;;;;;;;;;;;;2558600;23;1532;-84
2021/12/09 05:56:59;;;;;;;;;;;;;;;;;;2546014;23;1283;-84
2021/12/09 05:58:00;;;;;;;;;;;;;;;;;;2558864;23;823;-84
2021/12/09 05:59:02;;;;;;;;;;;;;;;;;;2559009;23;1346;-85
2021/12/09 06:00:04;;;;;;;;;;;;;;;;;;2558862;23;950;-83
2021/12/09 06:01:14;;;;;;;;;;;;;;;;;;2571881;23;1377;-83
2021/12/09 06:02:17;;;;;;;;;;;;;;;;;;2571347;23;992;-83
2021/12/09 06:03:20;;;;;;;;;;;;;;;;;;2559034;23;1260;-84
2021/12/09 06:04:22;;;;;;;;;;;;;;;;;;2559075;23;1008;-84
2021/12/09 06:05:24;;;;;;;;;;;;;;;;;;2571768;23;784;-84
2021/12/09 06:06:25;;;;;;;;;;;;;;;;;;2558209;23;1292;-84
2021/12/09 06:07:27;;;;;;;;;;;;;;;;;;2558594;23;1221;-84
2021/12/09 06:08:28;;;;;;;;;;;;;;;;;;2546268;23;1897;-84
2021/12/09 06:09:29;;;;;;;;;;;;;;;;;;2546380;23;1304;-84
2021/12/09 06:10:33;;;;;;;;;;;;;;;;;;2558598;23;1056;-84
2021/12/09 06:11:34;;;;;;;;;;;;;;;;;;2571972;23;772;-85
2021/12/09 06:12:37;;;;;;;;;;;;;;;;;;2558573;23;1287;-84
2021/12/09 06:13:38;;;;;;;;;;;;;;;;;;2546599;23;1291;-85
2021/12/09 06:14:41;;;;;;;;;;;;;;;;;;2545620;23;1342;-85
2021/12/09 06:15:41;;;;;;;;;;;;;;;;;;2546653;23;1215;-83
2021/12/09 06:16:45;;;;;;;;;;;;;;;;;;2558243;23;1390;-84
2021/12/09 06:17:45;;;;;;;;;;;;;;;;;;2558854;23;1314;-83
2021/12/09 06:18:49;;;;;;;;;;;;;;;;;;2546237;23;1268;-83
2021/12/09 06:19:49;;;;;;;;;;;;;;;;;;2546744;23;1373;-84
2021/12/09 06:20:51;;;;;;;;;;;;;;;;;;2546324;23;1390;-84
2021/12/09 06:21:53;;;;;;;;;;;;;;;;;;2546343;23;1242;-85
2021/12/09 06:22:53;;;;;;;;;;;;;;;;;;2546408;23;1192;-84
2021/12/09 06:23:55;;;;;;;;;;;;;;;;;;2546252;23;1337;-84
2021/12/09 06:24:56;;;;;;;;;;;;;;;;;;2546379;23;1181;-84
2021/12/09 06:25:58;;;;;;;;;;;;;;;;;;2546185;23;1270;-84
2021/12/09 06:26:59;;;;;;;;;;;;;;;;;;2558557;23;1436;-84
2021/12/09 06:28:01;;;;;;;;;;;;;;;;;;2570547;23;1926;-84
2021/12/09 06:29:02;;;;;;;;;;;;;;;;;;2558369;23;1317;-84
2021/12/09 06:30:04;;;;;;;;;;;;;;;;;;2546306;23;1411;-83
2021/12/09 06:31:05;;;;;;;;;;;;;;;;;;2546503;23;1212;-86
2021/12/09 06:32:07;;;;;;;;;;;;;;;;;;2558531;23;935;-84
2021/12/09 06:33:07;;;;;;;;;;;;;;;;;;2572127;23;799;-85
2021/12/09 06:34:12;;;;;;;;;;;;;;;;;;2558626;23;1231;-84
2021/12/09 06:35:14;;;;;;;;;;;;;;;;;;2547051;23;1187;-83
2021/12/09 06:36:15;;;;;;;;;;;;;;;;;;2546331;23;1289;-83
2021/12/09 06:37:17;;;;;;;;;;;;;;;;;;2546380;23;1216;-83
2021/12/09 06:38:18;;;;;;;;;;;;;;;;;;2546289;23;1273;-85
2021/12/09 06:39:19;;;;;;;;;;;;;;;;;;2546290;23;1215;-84
2021/12/09 06:40:21;;;;;;;;;;;;;;;;;;2546172;23;1370;-83
2021/12/09 06:41:23;;;;;;;;;;;;;;;;;;2546104;23;1289;-84
2021/12/09 06:42:23;;;;;;;;;;;;;;;;;;2545347;23;1164;-84
2021/12/09 06:43:25;;;;;;;;;;;;;;;;;;2534151;23;1356;-83
2021/12/09 06:44:27;;;;;;;;;;;;;;;;;;2534324;23;1351;-83
2021/12/09 06:45:28;;;;;;;;;;;;;;;;;;2534322;23;1323;-84
2021/12/09 06:46:29;;;;;;;;;;;;;;;;;;2546126;23;883;-84
2021/12/09 06:47:30;;;;;;;;;;;;;;;;;;2545894;23;1253;-84
2021/12/09 06:48:32;;;;;;;;;;;;;;;;;;2546296;23;1948;-84
2021/12/09 06:49:35;;;;;;;;;;;;;;;;;;2559379;23;772;-83
2021/12/09 06:50:36;;;;;;;;;;;;;;;;;;2546060;23;1204;-83
2021/12/09 06:51:38;;;;;;;;;;;;;;;;;;2546583;23;985;-84
2021/12/09 06:52:38;;;;;;;;;;;;;;;;;;2559193;23;843;-84
2021/12/09 06:53:40;;;;;;;;;;;;;;;;;;2546298;23;1183;-84
2021/12/09 06:54:41;;;;;;;;;;;;;;;;;;2546533;23;863;-83
2021/12/09 06:55:43;;;;;;;;;;;;;;;;;;2546446;23;1221;-83
2021/12/09 06:56:45;;;;;;;;;;;;;;;;;;2533861;23;1282;-83
2021/12/09 06:57:46;;;;;;;;;;;;;;;;;;2546415;23;859;-83
2021/12/09 06:58:47;;;;;;;;;;;;;;;;;;2545984;23;1304;-83
2021/12/09 06:59:48;;;;;;;;;;;;;;;;;;2546488;23;1045;-84
2021/12/09 07:00:50;;;;;;;;;;;;;;;;;;2545490;23;1584;-85
2021/12/09 07:01:51;;;;;;;;;;;;;;;;;;2533774;23;1216;-84
2021/12/09 07:02:53;;;;;;;;;;;;;;;;;;2533771;23;1314;-84
2021/12/09 07:03:55;;;;;;;;;;;;;;;;;;2534163;23;1265;-83
2021/12/09 07:04:58;;;;;;;;;;;;;;;;;;2546349;23;827;-85
2021/12/09 07:06:05;;;;;;;;;;;;;;;;;;2546012;23;1202;-84
2021/12/09 07:07:06;;;;;;;;;;;;;;;;;;2546019;23;1239;-83
2021/12/09 07:08:08;;;;;;;;;;;;;;;;;;2533927;23;1901;-83
2021/12/09 07:09:10;;;;;;;;;;;;;;;;;;2546353;23;950;-84
2021/12/09 07:10:11;;;;;;;;;;;;;;;;;;2546166;23;1184;-84
2021/12/09 07:11:13;;;;;;;;;;;;;;;;;;2534095;23;1273;-83
2021/12/09 07:12:13;;;;;;;;;;;;;;;;;;2533801;23;1335;-83
2021/12/09 07:13:15;;;;;;;;;;;;;;;;;;2546398;23;850;-83
2021/12/09 07:14:17;;;;;;;;;;;;;;;;;;2546135;23;1251;-83
2021/12/09 07:15:19;;;;;;;;;;;;;;;;;;2546345;23;723;-84
2021/12/09 07:16:21;;;;;;;;;;;;;;;;;;2546203;23;1216;-84
2021/12/09 07:17:21;;;;;;;;;;;;;;;;;;2545873;23;1387;-84
2021/12/09 07:18:25;;;;;;;;;;;;;;;;;;2534081;23;1299;-84
2021/12/09 07:19:25;;;;;;;;;;;;;;;;;;2533985;23;1343;-84
2021/12/09 07:20:28;;;;;;;;;;;;;;;;;;2546141;23;1398;-84
2021/12/09 07:21:30;;;;;;;;;;;;;;;;;;2547351;23;1216;-84
2021/12/09 07:22:31;;;;;;;;;;;;;;;;;;2533673;23;1244;-84
2021/12/09 07:23:32;;;;;;;;;;;;;;;;;;2558516;23;1319;-84
2021/12/09 07:24:37;;;;;;;;;;;;;;;;;;2558209;23;1295;-87
2021/12/09 07:25:38;;;;;;;;;;;;;;;;;;2534521;23;1383;-84
2021/12/09 07:26:40;;;;;;;;;;;;;;;;;;2546062;23;984;-84
2021/12/09 07:27:41;;;;;;;;;;;;;;;;;;2546313;23;1172;-83
2021/12/09 07:28:42;;;;;;;;;;;;;;;;;;2533758;23;1909;-83
2021/12/09 07:29:44;;;;;;;;;;;;;;;;;;2533944;23;1247;-84
2021/12/09 07:30:46;;;;;;;;;;;;;;;;;;2546266;23;734;-83
2021/12/09 07:31:46;;;;;;;;;;;;;;;;;;2546368;23;1257;-83
2021/12/09 07:32:48;;;;;;;;;;;;;;;;;;2533794;23;1481;-84
2021/12/09 07:33:50;;;;;;;;;;;;;;;;;;2546306;23;1260;-84
2021/12/09 07:34:50;;;;;;;;;;;;;;;;;;2558378;23;1258;-83
2021/12/09 07:35:53;;;;;;;;;;;;;;;;;;2570958;23;776;-85
2021/12/09 07:36:56;;;;;;;;;;;;;;;;;;2546296;23;1156;-84
2021/12/09 07:37:58;;;;;;;;;;;;;;;;;;2534366;23;1326;-85
2021/12/09 07:38:59;;;;;;;;;;;;;;;;;;2534252;23;1294;-84
2021/12/09 07:40:01;;;;;;;;;;;;;;;;;;2546807;23;787;-83
2021/12/09 07:41:03;;;;;;;;;;;;;;;;;;2542990;23;1207;-84
2021/12/09 07:42:04;;;;;;;;;;;;;;;;;;2534051;23;1330;-84
2021/12/09 07:43:06;;;;;;;;;;;;;;;;;;2535433;23;1209;-84
2021/12/09 07:44:07;;;;;;;;;;;;;;;;;;2559401;23;1214;-84
2021/12/09 07:45:10;;;;;;;;;;;;;;;;;;2558970;23;1342;-84
2021/12/09 07:46:11;;;;;;;;;;;;;;;;;;2546964;23;1556;-83
2021/12/09 07:47:12;;;;;;;;;;;;;;;;;;2547177;23;1212;-83
2021/12/09 07:48:13;;;;;;;;;;;;;;;;;;2546672;23;1889;-83
2021/12/09 07:49:15;;;;;;;;;;;;;;;;;;2546829;23;1365;-84
2021/12/09 07:50:16;;;;;;;;;;;;;;;;;;2546334;23;1322;-83
2021/12/09 07:51:19;;;;;;;;;;;;;;;;;;2546875;23;1252;-83
2021/12/09 07:52:20;;;;;;;;;;;;;;;;;;2559197;23;863;-83
2021/12/09 07:53:22;;;;;;;;;;;;;;;;;;2559464;23;1132;-84
2021/12/09 07:54:23;;;;;;;;;;;;;;;;;;2559348;23;756;-84
2021/12/09 07:55:25;;;;;;;;;;;;;;;;;;2572519;23;1047;-83
2021/12/09 07:56:26;;;;;;;;;;;;;;;;;;2558843;23;1428;-83
2021/12/09 07:57:28;;;;;;;;;;;;;;;;;;2546869;23;1218;-84
2021/12/09 07:58:32;;;;;;;;;;;;;;;;;;2546960;23;1249;-83
2021/12/09 07:59:34;;;;;;;;;;;;;;;;;;2547590;23;1310;-85
2021/12/09 08:00:38;;;;;;;;;;;;;;;;;;2559497;23;788;-84
2021/12/09 08:01:39;;;;;;;;;;;;;;;;;;2572149;23;1229;-83
2021/12/09 08:02:41;;;;;;;;;;;;;;;;;;2559127;23;1323;-83
2021/12/09 08:03:43;;;;;;;;;;;;;;;;;;2547157;23;1231;-83
2021/12/09 08:04:45;;;;;;;;;;;;;;;;;;2546550;23;1177;-84
2021/12/09 08:05:48;;;;;;;;;;;;;;;;;;2547064;23;1176;-83
2021/12/09 08:06:51;;;;;;;;;;;;;;;;;;2546679;23;1249;-83
2021/12/09 08:07:53;;;;;;;;;;;;;;;;;;2559323;23;835;-84